Ana Sayfa
METAR-TAF:

METAR-TAF

Havaalanları :

Varna, Bulgaristan

Enlem: 43-12N, Boylam: 027-55E, yükseklik: 41 m

Güncel hava durumu gözlemi

Rapor saat 07:00 UTC de 27 dakika önce yapıldı.
Rüzgar batıdan 15 kt
Sıcaklık 6°C
Nem 87%
Basınç 1013 hPa
Görüş mesafesi 10 km veya daha fazla
1400 ft yükseklikte çok bulutlu

METAR: LBWN 280700Z 28015KT 9999 OVC014 06/04 Q1013 NOSIG

Saat: 09:27 (07:27 UTC)

Tahmin

Rapor saat 05:00 UTC de 2 saat ve 27 dakika önce yapıldı.
Ayın 28'si saat 06 UTC'den ayın 29'si saat 06 UTC'ye kadar geçerli Tahmin
Rüzgar batıdan 12 kt
Görüş mesafesi 10 km veya daha fazla
1300 ft yükseklikte parçalı çok bulutlu
Dönüşüyor
ayın 28'si saat 08 UTC'den ayın 28'si saat 10 UTC'ye kadar
Görüş mesafesi 10 km veya daha fazla
1500 m altında bulut yok ve kümülonimbus yok
Dönüşüyor
ayın 28'si saat 16 UTC'den ayın 28'si saat 18 UTC'ye kadar
Rüzgar değişken yönden 4 kt

TAF: LBWN 280500Z 2806/2906 28012KT 9999 BKN013 BECMG 2808/2810 CAVOK BECMG 2816/2818 VRB04KT

4.000'den fazla havaalanı için hava durumu gözlemleri ve tahminleri (METAR ve TAF raporları).

Kullanılabilir istasyonlar harita üzerinde sarı ve kırmızı noktalarla gösterilir.

İstasyonun adını görmek için fareyi noktanın üzerinde gezdirin.

Sonrasında hava gözlem ve tahminlerini görmek için tıklayın.

Haritayı değiştirmek için: yaklaştırmak için siyah artı işaretli yeşil düğmeye ve uzaklaştırmak için de eksi işaretli düğmeye hızla tıklayın; bitişik haritalar için yeşil okları kullanın.


METAR-TAF: